METAR stanice u blizini

 

LYBE - Beograd / Surčin, Srbija
Ažurirano: 01/10/2022 18:30
Rain showers, Delimično oblačno
Rain showers, Delimično oblačno
 Pravac vetra J
Vetar: J 9 km/h
Temperatura: 17°C
Tačka rose: 16°C
Vlažnost: 94%
Pritisak: 1013 hPa
Pregled: Rain Showers
Oblaci: Partly Cloudy
Vidljivost: 6 km
Cloud details: Partly Cloudy 1219 m
2022/10/01 16:30 LYBE 011630Z 17005KT 100V200 6000 SHRA SCT040TCU 17/16 Q1013 NOSIG
LYBT - Beograd / Batajnica, Srbija
Ažurirano: 01/10/2022 18:30
Vedro
Vedro
 Pravac vetra varies
Vetar: varies 4 km/h
Temperatura: 17°C
Tačka rose: 17°C
Vlažnost: 100%
Pritisak: 1013 hPa
Pregled: Vedro
Vidljivost: greater than 10 km
2022/10/01 16:30 LYBT 011630Z VRB02KT CAVOK 17/17 Q1013 NOSIG
LYVR - Vršac, Srbija
Ažurirano: 01/10/2022 18:30
Jaka kiša, Showers, Mist, Oblačno
Jaka kiša, Showers, Mist, Oblačno
 Pravac vetra SSI
Vetar: SSI 11 km/h
Temperatura: 16°C
Tačka rose: 16°C
Vlažnost: 100%
Pritisak: 1014 hPa
Pregled: Jaka kiša, Showers, Mist
Oblaci: Oblačno
Vidljivost: 5 km
Cloud details: Oblačno 610 m
2022/10/01 16:30 LYVR 011630Z AUTO 03006KT 360V090 4900 +SHRA BR VV020 16/16 Q1014
 
LYKV - Lađevci, Srbija
Ažurirano: 01/10/2022 18:30
Few Clouds
Few Clouds
 Pravac vetra varies
Vetar: varies 4 km/h
Temperatura: 21°C
Tačka rose: 18°C
Vlažnost: 83%
Pritisak: 1012 hPa
Oblaci: Few Clouds
Vidljivost: 10 km
Cloud details: Few Clouds 1372 m
2022/10/01 16:30 LYKV 011630Z VRB02KT 9999 FEW045 21/18 Q1012 NOSIG
LYNI - Niš, Srbija
Ažurirano: 01/10/2022 18:30
Partly Cloudy
Partly Cloudy
 Pravac vetra JI
Vetar: JI 7 km/h
Temperatura: 18°C
Tačka rose: 18°C
Vlažnost: 100%
Pritisak: 1014 hPa
Oblaci: Partly Cloudy
Vidljivost: 10 km
Cloud details: Partly Cloudy 1524 m
2022/10/01 16:30 LYNI 011630Z 13004KT 100V170 9999 SCT050 18/18 Q1014 NOSIG
BKPR - Priština, Srbija
Ažurirano: 01/10/2022 18:30
Mostly Cloudy
Mostly Cloudy
 Pravac vetra JJZ
Vetar: JJZ 11 km/h
Temperatura: 19°C
Tačka rose: 15°C
Vlažnost: 78%
Pritisak: 1015 hPa
Oblaci: Mostly Cloudy
Vidljivost: 10 km
Cloud details: Mostly Cloudy 2134 m
2022/10/01 16:30 BKPR 011630Z 20006KT 9999 BKN070 19/15 Q1015 NOSIG
 
LHPP - Pecs / Pogany, Hungary
Ažurirano: 01/10/2022 18:15
Vedro
Vedro
 Pravac vetra JJZ
Vetar: JJZ 11 km/h
Temperatura: 17°C
Tačka rose: 16°C
Vlažnost: 94%
Pritisak: 1012 hPa
Pregled: Vedro
Vidljivost: greater than 10 km
2022/10/01 16:15 LHPP 011615Z AUTO 20006KT CAVOK 17/16 Q1012
LHUD - Szeged, Hungary
Ažurirano: 04/07/2019 01:45
NOT Current
Vedro
Vedro
 Pravac vetra S
Vetar: S 7 km/h
Temperatura: 18°C
Tačka rose: 13°C
Vlažnost: 73%
Pritisak: 1019 hPa
Pregled: Vedro
Vidljivost: greater than 10 km
2019/07/03 23:45 LHUD 032345Z 35004KT CAVOK 18/13 Q1019
LRTR - Timisoara, Romania
Ažurirano: 01/10/2022 18:30
Rain showers, Delimično oblačno
Rain showers, Delimično oblačno
 Pravac vetra S
Vetar: S 7 km/h
Temperatura: 16°C
Tačka rose: 16°C
Vlažnost: 100%
Pritisak: 1011 hPa
Pregled: Rain Showers
Oblaci: Partly Cloudy
Vidljivost: 8 km
Cloud details: Partly Cloudy 1219 m
2022/10/01 16:30 LRTR 011630Z 35004KT 280V060 8000 SHRA SCT040CB 16/16 Q1011
 
LRCV - Craiova, Romania
Ažurirano: 01/10/2022 18:30
Vedro
Vedro
 Pravac vetra JJZ
Vetar: JJZ 4 km/h
Temperatura: 20°C
Tačka rose: 16°C
Vlažnost: 78%
Pritisak: 1013 hPa
Pregled: Vedro
Vidljivost: greater than 10 km
2022/10/01 16:30 LRCV 011630Z 21002KT CAVOK 20/16 Q1013
LBSF - Sofia, Bulgaria
Ažurirano: 01/10/2022 18:30
Vedro
Vedro
 Pravac vetra ZJZ
Vetar: ZJZ 9 km/h
Temperatura: 18°C
Tačka rose: 16°C
Vlažnost: 88%
Pritisak: 1016 hPa
Pregled: Vedro
Vidljivost: greater than 10 km
2022/10/01 16:30 LBSF 011630Z 25005KT CAVOK 18/16 Q1016 NOSIG
LWSK - Skoplje, Makedonija
Ažurirano: 01/10/2022 18:30
Partly Cloudy
Partly Cloudy
 Pravac vetra S
Vetar: S 4 km/h
Temperatura: 19°C
Tačka rose: 17°C
Vlažnost: 88%
Pritisak: 1014 hPa
Oblaci: Partly Cloudy
Vidljivost: 10 km
Cloud details: Few Clouds 1006 m
Partly Cloudy 3048 m
2022/10/01 16:30 LWSK 011630Z 35002KT 9999 FEW033 SCT100 19/17 Q1014 NOSIG
 
LYPG - Podgorica, Crna Gora
Ažurirano: 01/10/2022 18:30
Mostly Cloudy
Mostly Cloudy
 Pravac vetra varies
Vetar: varies 4 km/h
Temperatura: 20°C
Tačka rose: 18°C
Vlažnost: 88%
Pritisak: 1014 hPa
Oblaci: Mostly Cloudy
Vidljivost: 10 km
Cloud details: Mostly Cloudy 2743 m
2022/10/01 16:30 LYPG 011630Z VRB02KT 9999 BKN090 20/18 Q1014 NOSIG
LQSA - Sarajevo, Bosna i Hercegovina
Ažurirano: 01/10/2022 18:30
Slaba kiša, Pretežno oblačno
Slaba kiša, Pretežno oblačno
 Pravac vetra SSZ
Vetar: SSZ 6 km/h
Temperatura: 19°C
Tačka rose: 16°C
Vlažnost: 83%
Pritisak: 1014 hPa
Pregled: Light Rain
Oblaci: Mostly Cloudy
Vidljivost: 10 km
Cloud details: Few Clouds 1067 m
Mostly Cloudy 1372 m
2022/10/01 16:30 LQSA 011630Z 34003KT 280V360 9999 -RA FEW035 BKN045 19/16 Q1014 TEMPO 30012KT 5000 TSRA FEW030CB
LDOS - Osijek, Hrvatksa
Ažurirano: 01/10/2022 18:30
Partly Cloudy
Partly Cloudy
 Pravac vetra JJZ
Vetar: JJZ 9 km/h
Temperatura: 17°C
Tačka rose: 16°C
Vlažnost: 94%
Pritisak: 1012 hPa
Oblaci: Partly Cloudy
Vidljivost: 7 km
2022/10/01 16:30 LDOS 011630Z 20005KT 7000 NSC 17/16 Q1012